MMCS/CJS METAR and TAF weather

Enter ICAO airport designator
Station Type Date Time Source
MMCS METAR 2021/06/25 02:46 UTC NOAA

MMCS 250246Z 22016G28KT 10SM SCT025CB 35/12 A2995 RMK SLP995 52014 955 8/300


Station Type Date Time Source
MMCS Decoded METAR 2021/06/25 02:46 UTC NOAA

Ciudad Juarez International , Mexico (MMCS) 31-38N 106-26W
Jun 24, 2021 - 10:46 PM EDT / 2021.06.25 0246 UTC
Wind: from the SW (220 degrees) at 18 MPH (16 KT) gusting to 32 MPH (28 KT):0
Visibility: 10 mile(s):0
Sky conditions: partly cloudy
Weather: Cumulonimbus clouds observed
Temperature: 95 F (35 C)
Dew Point: 53 F (12 C)
Relative Humidity: 24%
Pressure (altimeter): 29.95 in. Hg (1014 hPa)
Pressure tendency: 0.04 inches (1.4 hPa) higher than three hours ago
ob: MMCS 250246Z 22016G28KT 10SM SCT025CB 35/12 A2995 RMK SLP995 52014 955 8/300
cycle: 3

Station Type Date Time Source
MMCS TAF 2021/06/25 06:56 UTC NOAA

TAF MMCS 250348Z 2506/2606 22015KT VC RA SCT025CB
FM250900 00000KT P6SM SCT250
FM251200 32005KT P6SM SKC
FM251800 24012KT P6SM SCT030 PROB40 2522/2602 VC RA BKN025CB

Example: see airport list